Honor — WDC6923 — position and weather

sailwx.info

Track history (hours):
 
Tides and Currents Weather Stations Pressure Air Temp Water Temp Dewpoint Dewpoint Depression Visibility Wind Speed Wind Dir Waves Ship Positions

Honor

Owner: TOTE Services, Inc., Jacksonville, FL. More information available from US FCC via Universal Licensing System and Coast Guard Vessel Documentation Center.

Last reported at 2018-Jun-19 20:00 UTC. Time now 2018-Jun-19 20:16 UTC.
Position N 29°19' W 094°47'.

Type: Cargo ship. MMSI: 367063280.

Date/timePositionNaut miles runAvg speedWind from/ knotsBaromVisibWave heightAir tempDewpointWater temp
2018-Jun-19 20:00N 29°19' W 094°47'0 0.0
2018-Jun-19 19:30N 29°19' W 094°47'0 0.0
2018-Jun-19 19:00N 29°19' W 094°47'0 0.0
2018-Jun-19 18:29N 29°19' W 094°47'0 0.0
2018-Jun-19 17:59N 29°19' W 094°47'0 0.0
2018-Jun-19 17:29N 29°19' W 094°47'0 0.0
2018-Jun-19 16:59N 29°19' W 094°47'0 0.0
2018-Jun-19 16:28N 29°19' W 094°47'0 0.0
2018-Jun-19 15:58N 29°19' W 094°47'0 0.0
2018-Jun-19 15:30N 29°19' W 094°47'1 1.5
2018-Jun-19 15:00N 29°20' W 094°47'713.2
2018-Jun-19 14:30N 29°19' W 094°39'611.8
2018-Jun-19 13:59N 29°16' W 094°33'612.7
2018-Jun-19 13:30N 29°12' W 094°27'8 9.4
2018-Jun-19 12:41N 29°11' W 094°19'1 3.9
2018-Jun-19 12:30N 29°10' W 094°19'2 4.7
2018-Jun-19 12:00N 29°09' W 094°22'4 6.4
2018-Jun-19 11:20N 29°07' W 094°26'2 4.5
2018-Jun-19 10:50N 29°06' W 094°28'2 4.5
2018-Jun-19 10:30N 29°05' W 094°30'2 4.6
2018-Jun-19 10:00N 29°04' W 094°32'2 4.3
2018-Jun-19 09:30N 29°03' W 094°34'2 4.3
2018-Jun-19 09:00N 29°02' W 094°36'1 2.8
2018-Jun-19 08:30N 29°02' W 094°38'2 4.5
2018-Jun-19 08:00N 29°03' W 094°35'3 6.2
2018-Jun-19 07:30N 29°05' W 094°32'17 4.9
2018-Jun-19 04:08N 29°14' W 094°16'1 3.4
2018-Jun-19 03:56N 29°13' W 094°17'1 0.3
2018-Jun-19 01:20N 29°13' W 094°17'2 4.3
2018-Jun-19 00:58N 29°12' W 094°19'2 4.1
2018-Jun-19 00:23N 29°10' W 094°21'7 3.8
2018-Jun-18 22:29N 29°15' W 094°15'2 4.0
2018-Jun-18 22:00N 29°13' W 094°16'1 0.4
2018-Jun-18 19:15N 29°14' W 094°15'1 3.4
2018-Jun-18 19:00N 29°14' W 094°15'2 4.5
2018-Jun-18 18:30N 29°12' W 094°17'2 4.8
2018-Jun-18 18:00N 29°11' W 094°20'3 1.7
2018-Jun-18 16:31N 29°13' W 094°17'0 5.6
2018-Jun-18 16:30N 29°13' W 094°17'2 4.2
2018-Jun-18 16:00N 29°11' W 094°19'5 6.2
2018-Jun-18 15:15N 29°09' W 094°24'310.5
2018-Jun-18 15:00N 29°08' W 094°27'713.5
2018-Jun-18 14:30N 29°04' W 094°33'0 0.9
2018-Jun-18 13:59N 29°04' W 094°33'2 5.0
2018-Jun-18 13:30N 29°05' W 094°31'4 5.1
2018-Jun-18 12:42N 29°07' W 094°27'15 4.7
2018-Jun-18 09:33N 29°16' W 094°13'0 7.9
2018-Jun-18 09:30N 29°15' W 094°13'4 7.4
2018-Jun-18 09:00N 29°13' W 094°16'4 7.4
2018-Jun-18 08:30N 29°11' W 094°20'  
2018-Jun-15 06:54N 25°44' W 079°34'410.7
2018-Jun-15 06:30N 25°48' W 079°34'1810.8
2018-Jun-15 04:48N 26°06' W 079°31'310.8
2018-Jun-15 04:30N 26°09' W 079°31'510.9
2018-Jun-15 04:00N 26°15' W 079°30'390 8.1
2018-Jun-13 03:37N 32°44' W 079°50'215.7
2018-Jun-13 03:30N 32°45' W 079°52'4 8.3
2018-Jun-13 03:00N 32°48' W 079°56'0 0.0
2018-Jun-13 02:30N 32°48' W 079°56'0 0.0
2018-Jun-13 01:59N 32°48' W 079°56'0 0.0
2018-Jun-13 01:29N 32°48' W 079°56'0 0.0
2018-Jun-13 00:59N 32°48' W 079°56'0 0.0
2018-Jun-13 00:30N 32°48' W 079°56'0 0.0
2018-Jun-13 00:00N 32°48' W 079°56'0 0.0
2018-Jun-12 23:28N 32°48' W 079°56'0 0.0
2018-Jun-12 22:58N 32°48' W 079°56'0 0.0
2018-Jun-12 22:28N 32°48' W 079°56'0 0.0
2018-Jun-12 22:00N 32°48' W 079°56'0 0.0
2018-Jun-12 21:30N 32°48' W 079°56'0 0.0
2018-Jun-12 21:00N 32°48' W 079°56'0 0.0
2018-Jun-12 20:29N 32°48' W 079°56'0 0.0
2018-Jun-12 19:59N 32°48' W 079°56'0 0.0
2018-Jun-12 19:26N 32°48' W 079°56'0 0.0
2018-Jun-12 18:59N 32°48' W 079°56'0 0.0
2018-Jun-12 18:28N 32°48' W 079°56'0 0.0
2018-Jun-12 17:58N 32°48' W 079°56'0 0.0
2018-Jun-12 17:28N 32°48' W 079°56'0 0.0
2018-Jun-12 17:00N 32°48' W 079°56'0 0.0
2018-Jun-12 16:30N 32°48' W 079°56'0 0.9
2018-Jun-12 16:00N 32°48' W 079°55'2 4.1
2018-Jun-12 15:30N 32°50' W 079°56'4 8.6
2018-Jun-12 15:00N 32°53' W 079°58'1 2.1
2018-Jun-12 14:29N 32°54' W 079°57'2 0.5
2018-Jun-12 10:02N 32°52' W 079°58'010.1
2018-Jun-12 09:59N 32°52' W 079°57'4 8.2
2018-Jun-12 09:30N 32°48' W 079°55'612.1
2018-Jun-12 09:00N 32°44' W 079°50'21015.5
2018-Jun-11 19:29N 34°26' W 076°10'3216.8
2018-Jun-11 17:36N 34°48' W 075°42'216.8
2018-Jun-11 17:30N 34°49' W 075°41'916.9
2018-Jun-11 16:59N 34°55' W 075°33'17315.3
2018-Jun-11 05:40N 37°45' W 076°11'317.0
2018-Jun-11 05:29N 37°48' W 076°11'1115.6
2018-Jun-11 04:45N 37°60' W 076°12'416.0
2018-Jun-11 04:30N 38°04' W 076°13'4315.9
2018-Jun-11 01:48N 38°46' W 076°26'517.4
2018-Jun-11 01:30N 38°50' W 076°24'917.4
2018-Jun-11 01:00N 38°59' W 076°23'714.2
2018-Jun-11 00:30N 39°06' W 076°24'611.3
2018-Jun-11 00:00N 39°11' W 076°27'5 9.8
2018-Jun-10 23:30N 39°14' W 076°33'1 1.6
2018-Jun-10 23:00N 39°15' W 076°32'0 0.0
2018-Jun-10 22:30N 39°15' W 076°32'0 0.0
2018-Jun-10 21:58N 39°15' W 076°32'0 0.0
2018-Jun-10 21:28N 39°15' W 076°32'0 0.0
2018-Jun-10 20:58N 39°15' W 076°32'0 0.0
2018-Jun-10 20:30N 39°15' W 076°32'0 0.0
2018-Jun-10 20:00N 39°15' W 076°32'0 0.0
2018-Jun-10 19:27N 39°15' W 076°32'0 0.0
2018-Jun-10 19:00N 39°15' W 076°32'0 0.0
2018-Jun-10 18:29N 39°15' W 076°32'0 0.0
2018-Jun-10 17:59N 39°15' W 076°32'0 0.0
2018-Jun-10 17:28N 39°15' W 076°32'0 0.0
2018-Jun-10 16:58N 39°15' W 076°32'0 0.0
2018-Jun-10 16:30N 39°15' W 076°32'0 0.0
2018-Jun-10 16:00N 39°15' W 076°32'0 0.0
2018-Jun-10 15:30N 39°15' W 076°32'0 0.0
2018-Jun-10 14:59N 39°15' W 076°32'0 0.0
2018-Jun-10 14:23N 39°15' W 076°32'0 0.0
2018-Jun-10 13:29N 39°15' W 076°32'0 0.0
2018-Jun-10 12:58N 39°15' W 076°32'0 0.0
2018-Jun-10 12:28N 39°15' W 076°32'0 0.0
2018-Jun-10 11:58N 39°15' W 076°32'0 0.0
2018-Jun-10 11:30N 39°15' W 076°32'0 0.0
2018-Jun-10 11:00N 39°15' W 076°32'0 0.0
2018-Jun-10 10:30N 39°15' W 076°32'0 0.0
2018-Jun-10 09:59N 39°15' W 076°32'0 0.0
2018-Jun-10 09:26N 39°15' W 076°32'0 0.0
2018-Jun-10 08:59N 39°15' W 076°32'0 0.0
2018-Jun-10 08:29N 39°15' W 076°32'0 0.0
2018-Jun-10 07:58N 39°15' W 076°32'0 0.0
2018-Jun-10 07:25N 39°15' W 076°32'0 0.0
2018-Jun-10 06:58N 39°15' W 076°32'0 0.0
2018-Jun-10 06:30N 39°15' W 076°32'0 0.0
2018-Jun-10 06:00N 39°15' W 076°32'0 0.0
2018-Jun-10 05:30N 39°15' W 076°32'0 0.0
2018-Jun-10 04:59N 39°15' W 076°32'0 0.0
2018-Jun-10 04:30N 39°15' W 076°32'0 0.0
2018-Jun-10 04:00N 39°15' W 076°32'1 1.8
2018-Jun-10 03:30N 39°14' W 076°32'4 7.6
2018-Jun-10 03:00N 39°11' W 076°28'611.6
2018-Jun-10 02:30N 39°07' W 076°24'713.3
2018-Jun-10 02:00N 39°00' W 076°23'816.0
2018-Jun-10 01:30N 38°52' W 076°24'816.6
2018-Jun-10 01:00N 38°44' W 076°26'2716.3
2018-Jun-09 23:22N 38°18' W 076°18'616.6
2018-Jun-09 22:59N 38°12' W 076°15'816.6
2018-Jun-09 22:30N 38°05' W 076°13'816.4
2018-Jun-09 22:00N 37°57' W 076°10'815.4
2018-Jun-09 21:30N 37°49' W 076°10'1415.2
2018-Jun-09 20:34N 37°36' W 076°04'116.1
2018-Jun-09 20:29N 37°34' W 076°03'  
Track history (hours):
 
Tides and Currents Weather Stations Pressure Air Temp Water Temp Dewpoint Dewpoint Depression Visibility Wind Speed Wind Dir Waves Ship Positions

Honor

Owner: TOTE Services, Inc., Jacksonville, FL. More information available from US FCC via Universal Licensing System and Coast Guard Vessel Documentation Center.

Last reported at 2018-Jun-19 20:00 UTC. Time now 2018-Jun-19 20:16 UTC.
Position N 29°19' W 094°47'.

Type: Cargo ship. MMSI: 367063280.

Date/timePositionNaut miles runAvg speedWind from/ knotsBaromVisibWave heightAir tempDewpointWater temp
2018-Jun-19 20:00N 29°19' W 094°47'0 0.0
2018-Jun-19 19:30N 29°19' W 094°47'0 0.0
2018-Jun-19 19:00N 29°19' W 094°47'0 0.0
2018-Jun-19 18:29N 29°19' W 094°47'0 0.0
2018-Jun-19 17:59N 29°19' W 094°47'0 0.0
2018-Jun-19 17:29N 29°19' W 094°47'0 0.0
2018-Jun-19 16:59N 29°19' W 094°47'0 0.0
2018-Jun-19 16:28N 29°19' W 094°47'0 0.0
2018-Jun-19 15:58N 29°19' W 094°47'0 0.0
2018-Jun-19 15:30N 29°19' W 094°47'1 1.5
2018-Jun-19 15:00N 29°20' W 094°47'713.2
2018-Jun-19 14:30N 29°19' W 094°39'611.8
2018-Jun-19 13:59N 29°16' W 094°33'612.7
2018-Jun-19 13:30N 29°12' W 094°27'8 9.4
2018-Jun-19 12:41N 29°11' W 094°19'1 3.9
2018-Jun-19 12:30N 29°10' W 094°19'2 4.7
2018-Jun-19 12:00N 29°09' W 094°22'4 6.4
2018-Jun-19 11:20N 29°07' W 094°26'2 4.5
2018-Jun-19 10:50N 29°06' W 094°28'2 4.5
2018-Jun-19 10:30N 29°05' W 094°30'2 4.6
2018-Jun-19 10:00N 29°04' W 094°32'2 4.3
2018-Jun-19 09:30N 29°03' W 094°34'2 4.3
2018-Jun-19 09:00N 29°02' W 094°36'1 2.8
2018-Jun-19 08:30N 29°02' W 094°38'2 4.5
2018-Jun-19 08:00N 29°03' W 094°35'3 6.2
2018-Jun-19 07:30N 29°05' W 094°32'17 4.9
2018-Jun-19 04:08N 29°14' W 094°16'1 3.4
2018-Jun-19 03:56N 29°13' W 094°17'1 0.3
2018-Jun-19 01:20N 29°13' W 094°17'2 4.3
2018-Jun-19 00:58N 29°12' W 094°19'2 4.1
2018-Jun-19 00:23N 29°10' W 094°21'7 3.8
2018-Jun-18 22:29N 29°15' W 094°15'2 4.0
2018-Jun-18 22:00N 29°13' W 094°16'1 0.4
2018-Jun-18 19:15N 29°14' W 094°15'1 3.4
2018-Jun-18 19:00N 29°14' W 094°15'2 4.5
2018-Jun-18 18:30N 29°12' W 094°17'2 4.8
2018-Jun-18 18:00N 29°11' W 094°20'3 1.7
2018-Jun-18 16:31N 29°13' W 094°17'0 5.6
2018-Jun-18 16:30N 29°13' W 094°17'2 4.2
2018-Jun-18 16:00N 29°11' W 094°19'5 6.2
2018-Jun-18 15:15N 29°09' W 094°24'310.5
2018-Jun-18 15:00N 29°08' W 094°27'713.5
2018-Jun-18 14:30N 29°04' W 094°33'0 0.9
2018-Jun-18 13:59N 29°04' W 094°33'2 5.0
2018-Jun-18 13:30N 29°05' W 094°31'4 5.1
2018-Jun-18 12:42N 29°07' W 094°27'15 4.7
2018-Jun-18 09:33N 29°16' W 094°13'0 7.9
2018-Jun-18 09:30N 29°15' W 094°13'4 7.4
2018-Jun-18 09:00N 29°13' W 094°16'4 7.4
2018-Jun-18 08:30N 29°11' W 094°20'  
2018-Jun-15 06:54N 25°44' W 079°34'410.7
2018-Jun-15 06:30N 25°48' W 079°34'1810.8
2018-Jun-15 04:48N 26°06' W 079°31'310.8
2018-Jun-15 04:30N 26°09' W 079°31'510.9
2018-Jun-15 04:00N 26°15' W 079°30'390 8.1
2018-Jun-13 03:37N 32°44' W 079°50'215.7
2018-Jun-13 03:30N 32°45' W 079°52'4 8.3
2018-Jun-13 03:00N 32°48' W 079°56'0 0.0
2018-Jun-13 02:30N 32°48' W 079°56'0 0.0
2018-Jun-13 01:59N 32°48' W 079°56'0 0.0
2018-Jun-13 01:29N 32°48' W 079°56'0 0.0
2018-Jun-13 00:59N 32°48' W 079°56'0 0.0
2018-Jun-13 00:30N 32°48' W 079°56'0 0.0
2018-Jun-13 00:00N 32°48' W 079°56'0 0.0
2018-Jun-12 23:28N 32°48' W 079°56'0 0.0
2018-Jun-12 22:58N 32°48' W 079°56'0 0.0
2018-Jun-12 22:28N 32°48' W 079°56'0 0.0
2018-Jun-12 22:00N 32°48' W 079°56'0 0.0
2018-Jun-12 21:30N 32°48' W 079°56'0 0.0
2018-Jun-12 21:00N 32°48' W 079°56'0 0.0
2018-Jun-12 20:29N 32°48' W 079°56'0 0.0
2018-Jun-12 19:59N 32°48' W 079°56'0 0.0
2018-Jun-12 19:26N 32°48' W 079°56'0 0.0
2018-Jun-12 18:59N 32°48' W 079°56'0 0.0
2018-Jun-12 18:28N 32°48' W 079°56'0 0.0
2018-Jun-12 17:58N 32°48' W 079°56'0 0.0
2018-Jun-12 17:28N 32°48' W 079°56'0 0.0
2018-Jun-12 17:00N 32°48' W 079°56'0 0.0
2018-Jun-12 16:30N 32°48' W 079°56'0 0.9
2018-Jun-12 16:00N 32°48' W 079°55'2 4.1
2018-Jun-12 15:30N 32°50' W 079°56'4 8.6
2018-Jun-12 15:00N 32°53' W 079°58'1 2.1
2018-Jun-12 14:29N 32°54' W 079°57'2 0.5
2018-Jun-12 10:02N 32°52' W 079°58'010.1
2018-Jun-12 09:59N 32°52' W 079°57'4 8.2
2018-Jun-12 09:30N 32°48' W 079°55'612.1
2018-Jun-12 09:00N 32°44' W 079°50'21015.5
2018-Jun-11 19:29N 34°26' W 076°10'3216.8
2018-Jun-11 17:36N 34°48' W 075°42'216.8
2018-Jun-11 17:30N 34°49' W 075°41'916.9
2018-Jun-11 16:59N 34°55' W 075°33'17315.3
2018-Jun-11 05:40N 37°45' W 076°11'317.0
2018-Jun-11 05:29N 37°48' W 076°11'1115.6
2018-Jun-11 04:45N 37°60' W 076°12'416.0
2018-Jun-11 04:30N 38°04' W 076°13'4315.9
2018-Jun-11 01:48N 38°46' W 076°26'517.4
2018-Jun-11 01:30N 38°50' W 076°24'917.4
2018-Jun-11 01:00N 38°59' W 076°23'714.2
2018-Jun-11 00:30N 39°06' W 076°24'611.3
2018-Jun-11 00:00N 39°11' W 076°27'5 9.8
2018-Jun-10 23:30N 39°14' W 076°33'1 1.6
2018-Jun-10 23:00N 39°15' W 076°32'0 0.0
2018-Jun-10 22:30N 39°15' W 076°32'0 0.0
2018-Jun-10 21:58N 39°15' W 076°32'0 0.0
2018-Jun-10 21:28N 39°15' W 076°32'0 0.0
2018-Jun-10 20:58N 39°15' W 076°32'0 0.0
2018-Jun-10 20:30N 39°15' W 076°32'0 0.0
2018-Jun-10 20:00N 39°15' W 076°32'0 0.0
2018-Jun-10 19:27N 39°15' W 076°32'0 0.0
2018-Jun-10 19:00N 39°15' W 076°32'0 0.0
2018-Jun-10 18:29N 39°15' W 076°32'0 0.0
2018-Jun-10 17:59N 39°15' W 076°32'0 0.0
2018-Jun-10 17:28N 39°15' W 076°32'0 0.0
2018-Jun-10 16:58N 39°15' W 076°32'0 0.0
2018-Jun-10 16:30N 39°15' W 076°32'0 0.0
2018-Jun-10 16:00N 39°15' W 076°32'0 0.0
2018-Jun-10 15:30N 39°15' W 076°32'0 0.0
2018-Jun-10 14:59N 39°15' W 076°32'0 0.0
2018-Jun-10 14:23N 39°15' W 076°32'0 0.0
2018-Jun-10 13:29N 39°15' W 076°32'0 0.0
2018-Jun-10 12:58N 39°15' W 076°32'0 0.0
2018-Jun-10 12:28N 39°15' W 076°32'0 0.0
2018-Jun-10 11:58N 39°15' W 076°32'0 0.0
2018-Jun-10 11:30N 39°15' W 076°32'0 0.0
2018-Jun-10 11:00N 39°15' W 076°32'0 0.0
2018-Jun-10 10:30N 39°15' W 076°32'0 0.0
2018-Jun-10 09:59N 39°15' W 076°32'0 0.0
2018-Jun-10 09:26N 39°15' W 076°32'0 0.0
2018-Jun-10 08:59N 39°15' W 076°32'0 0.0
2018-Jun-10 08:29N 39°15' W 076°32'0 0.0
2018-Jun-10 07:58N 39°15' W 076°32'0 0.0
2018-Jun-10 07:25N 39°15' W 076°32'0 0.0
2018-Jun-10 06:58N 39°15' W 076°32'0 0.0
2018-Jun-10 06:30N 39°15' W 076°32'0 0.0
2018-Jun-10 06:00N 39°15' W 076°32'0 0.0
2018-Jun-10 05:30N 39°15' W 076°32'0 0.0
2018-Jun-10 04:59N 39°15' W 076°32'0 0.0
2018-Jun-10 04:30N 39°15' W 076°32'0 0.0
2018-Jun-10 04:00N 39°15' W 076°32'1 1.8
2018-Jun-10 03:30N 39°14' W 076°32'4 7.6
2018-Jun-10 03:00N 39°11' W 076°28'611.6
2018-Jun-10 02:30N 39°07' W 076°24'713.3
2018-Jun-10 02:00N 39°00' W 076°23'816.0
2018-Jun-10 01:30N 38°52' W 076°24'816.6
2018-Jun-10 01:00N 38°44' W 076°26'2716.3
2018-Jun-09 23:22N 38°18' W 076°18'616.6
2018-Jun-09 22:59N 38°12' W 076°15'816.6
2018-Jun-09 22:30N 38°05' W 076°13'816.4
2018-Jun-09 22:00N 37°57' W 076°10'815.4
2018-Jun-09 21:30N 37°49' W 076°10'1415.2
2018-Jun-09 20:34N 37°36' W 076°04'116.1
2018-Jun-09 20:29N 37°34' W 076°03'  

Dump ship's entire track history